Kiefer, Oklahoma
Current Conditions -  °F | °C
As of 7:53 PM on Wednesday 22 Oct 2014 (Local Time) from KRVS Reporting Station
Clear Clear  
Wind Chill: 71°   Ceiling: Unl
Heat Index: 71°   Visibility: 10mi
Dew Point: 56°   Wind: 5mph
Humidity: 59%   Direction: 150°SSE
Pressure: 30.11"   Gusts: NA
Location:  35.94°N, 96.07°W
Report Text: KRVS 230053Z 15004KT 10SM CLR 22/13 A3011 RMK AO2 SLP200 T02170133
Loading
Personal Weather Stations






























Interactive Weather Map
Tropical Storm Tracking
New forecast layout! Learn more

10-Day Weather Forecast

Advertisements
Track Severe Weather on mobile